sensor_id;sensor_type;location;lat;lon;timestamp;pressure;altitude;pressure_sealevel;temperature;humidity
76070;BME280;64768;51.738;5.852;2022-10-31T00:01:39;102111.81;;;13.59;86.03
76070;BME280;64768;51.738;5.852;2022-10-31T00:04:08;102107.91;;;13.57;85.87
76070;BME280;64768;51.738;5.852;2022-10-31T00:06:36;102116.91;;;13.54;86.22
76070;BME280;64768;51.738;5.852;2022-10-31T00:09:05;102112.59;;;13.49;85.92
76070;BME280;64768;51.738;5.852;2022-10-31T00:11:34;102108.69;;;13.46;85.93
76070;BME280;64768;51.738;5.852;2022-10-31T00:14:03;102115.31;;;13.49;85.98
76070;BME280;64768;51.738;5.852;2022-10-31T00:16:32;102108.69;;;13.46;86.24
76070;BME280;64768;51.738;5.852;2022-10-31T00:19:05;102113.78;;;13.44;85.77
76070;BME280;64768;51.738;5.852;2022-10-31T00:21:35;102107.91;;;13.42;86.03
76070;BME280;64768;51.738;5.852;2022-10-31T00:24:04;102116.50;;;13.41;85.99
76070;BME280;64768;51.738;5.852;2022-10-31T00:26:32;102126.28;;;13.38;86.05
76070;BME280;64768;51.738;5.852;2022-10-31T00:29:01;102124.34;;;13.35;85.90
76070;BME280;64768;51.738;5.852;2022-10-31T00:31:30;102121.97;;;13.30;85.78
76070;BME280;64768;51.738;5.852;2022-10-31T00:33:58;102126.25;;;13.31;86.13
76070;BME280;64768;51.738;5.852;2022-10-31T00:36:30;102108.69;;;13.21;86.00
76070;BME280;64768;51.738;5.852;2022-10-31T00:38:59;102115.31;;;13.24;85.91
76070;BME280;64768;51.738;5.852;2022-10-31T00:41:28;102116.88;;;13.21;85.83
76070;BME280;64768;51.738;5.852;2022-10-31T00:43:56;102125.88;;;13.18;86.07
76070;BME280;64768;51.738;5.852;2022-10-31T00:46:25;102116.81;;;13.14;86.15
76070;BME280;64768;51.738;5.852;2022-10-31T00:48:54;102113.69;;;13.12;85.77
76070;BME280;64768;51.738;5.852;2022-10-31T00:51:22;102109.00;;;13.06;86.12
76070;BME280;64768;51.738;5.852;2022-10-31T00:53:53;102100.78;;;12.99;85.92
76070;BME280;64768;51.738;5.852;2022-10-31T00:56:22;102104.69;;;13.01;86.09
76070;BME280;64768;51.738;5.852;2022-10-31T00:58:50;102107.78;;;12.96;85.71
76070;BME280;64768;51.738;5.852;2022-10-31T01:01:19;102099.19;;;12.90;85.81
76070;BME280;64768;51.738;5.852;2022-10-31T01:03:47;102098.41;;;12.86;85.79
76070;BME280;64768;51.738;5.852;2022-10-31T01:06:16;102099.94;;;12.84;86.10
76070;BME280;64768;51.738;5.852;2022-10-31T01:08:46;102097.22;;;12.80;86.37
76070;BME280;64768;51.738;5.852;2022-10-31T01:11:20;102098.38;;;12.79;86.14
76070;BME280;64768;51.738;5.852;2022-10-31T01:13:51;102099.16;;;12.73;86.04
76070;BME280;64768;51.738;5.852;2022-10-31T01:16:22;102099.94;;;12.70;86.13
76070;BME280;64768;51.738;5.852;2022-10-31T01:18:51;102105.75;;;12.68;86.09
76070;BME280;64768;51.738;5.852;2022-10-31T01:21:21;102112.00;;;12.69;85.99
76070;BME280;64768;51.738;5.852;2022-10-31T01:23:50;102115.50;;;12.66;85.72
76070;BME280;64768;51.738;5.852;2022-10-31T01:26:22;102116.28;;;12.62;86.11
76070;BME280;64768;51.738;5.852;2022-10-31T01:28:56;102110.03;;;12.62;85.89
76070;BME280;64768;51.738;5.852;2022-10-31T01:31:26;102112.75;;;12.58;86.06
76070;BME280;64768;51.738;5.852;2022-10-31T01:33:56;102123.69;;;12.58;85.82
76070;BME280;64768;51.738;5.852;2022-10-31T01:36:26;102116.66;;;12.54;85.90
76070;BME280;64768;51.738;5.852;2022-10-31T01:38:57;102085.00;;;12.49;86.09
76070;BME280;64768;51.738;5.852;2022-10-31T01:41:31;102074.84;;;12.46;85.84
76070;BME280;64768;51.738;5.852;2022-10-31T01:44:02;102085.75;;;12.46;86.28
76070;BME280;64768;51.738;5.852;2022-10-31T01:46:33;102086.94;;;12.45;86.46
76070;BME280;64768;51.738;5.852;2022-10-31T01:49:04;102076.00;;;12.42;86.48
76070;BME280;64768;51.738;5.852;2022-10-31T01:51:37;102092.00;;;12.43;86.53
76070;BME280;64768;51.738;5.852;2022-10-31T01:54:10;102089.66;;;12.42;86.27
76070;BME280;64768;51.738;5.852;2022-10-31T01:56:45;102095.84;;;12.35;86.23
76070;BME280;64768;51.738;5.852;2022-10-31T01:59:19;102105.22;;;12.34;85.96
76070;BME280;64768;51.738;5.852;2022-10-31T02:01:49;102104.03;;;12.31;86.55
76070;BME280;64768;51.738;5.852;2022-10-31T02:04:19;102108.34;;;12.32;86.39
76070;BME280;64768;51.738;5.852;2022-10-31T02:06:54;102104.81;;;12.28;86.02
76070;BME280;64768;51.738;5.852;2022-10-31T02:09:24;102106.75;;;12.31;86.01
76070;BME280;64768;51.738;5.852;2022-10-31T02:11:57;102109.88;;;12.26;86.13
76070;BME280;64768;51.738;5.852;2022-10-31T02:14:29;102117.28;;;12.22;85.89
76070;BME280;64768;51.738;5.852;2022-10-31T02:16:58;102118.44;;;12.25;86.30
76070;BME280;64768;51.738;5.852;2022-10-31T02:19:31;102101.22;;;12.17;86.16
76070;BME280;64768;51.738;5.852;2022-10-31T02:22:07;102112.94;;;12.18;85.85
76070;BME280;64768;51.738;5.852;2022-10-31T02:24:58;102111.38;;;12.17;85.86
76070;BME280;64768;51.738;5.852;2022-10-31T02:28:00;102112.16;;;12.17;86.09
76070;BME280;64768;51.738;5.852;2022-10-31T02:30:40;102109.78;;;12.16;86.31
76070;BME280;64768;51.738;5.852;2022-10-31T02:33:25;102101.97;;;12.11;86.21
76070;BME280;64768;51.738;5.852;2022-10-31T02:36:08;102090.66;;;12.09;86.52
76070;BME280;64768;51.738;5.852;2022-10-31T02:38:46;102085.56;;;12.07;86.80
76070;BME280;64768;51.738;5.852;2022-10-31T02:41:24;102092.94;;;12.03;87.10
76070;BME280;64768;51.738;5.852;2022-10-31T02:44:00;102094.88;;;11.99;86.74
76070;BME280;64768;51.738;5.852;2022-10-31T02:46:32;102093.31;;;12.01;87.57
76070;BME280;64768;51.738;5.852;2022-10-31T02:49:09;102093.72;;;12.00;87.33
76070;BME280;64768;51.738;5.852;2022-10-31T02:51:39;102098.38;;;11.96;87.46
76070;BME280;64768;51.738;5.852;2022-10-31T02:54:17;102090.94;;;11.93;87.80
76070;BME280;64768;51.738;5.852;2022-10-31T02:56:47;102087.84;;;11.94;87.54
76070;BME280;64768;51.738;5.852;2022-10-31T02:59:19;102095.63;;;11.96;87.69
76070;BME280;64768;51.738;5.852;2022-10-31T03:02:08;102096.41;;;11.96;87.66
76070;BME280;64768;51.738;5.852;2022-10-31T03:05:02;102096.03;;;11.94;87.90
76070;BME280;64768;51.738;5.852;2022-10-31T03:07:42;102091.72;;;11.93;87.61
76070;BME280;64768;51.738;5.852;2022-10-31T03:10:19;102087.81;;;11.91;87.69
76070;BME280;64768;51.738;5.852;2022-10-31T03:12:59;102096.41;;;11.93;87.37
76070;BME280;64768;51.738;5.852;2022-10-31T03:15:32;102093.66;;;11.89;87.36
76070;BME280;64768;51.738;5.852;2022-10-31T03:18:05;102094.44;;;11.90;87.55
76070;BME280;64768;51.738;5.852;2022-10-31T03:20:40;102100.28;;;11.88;87.25
76070;BME280;64768;51.738;5.852;2022-10-31T03:23:14;102097.50;;;11.85;87.22
76070;BME280;64768;51.738;5.852;2022-10-31T03:25:43;102095.56;;;11.85;86.93
76070;BME280;64768;51.738;5.852;2022-10-31T03:28:16;102103.75;;;11.85;87.34
76070;BME280;64768;51.738;5.852;2022-10-31T03:30:48;102097.09;;;11.83;87.39
76070;BME280;64768;51.738;5.852;2022-10-31T03:33:23;102091.63;;;11.79;87.14
76070;BME280;64768;51.738;5.852;2022-10-31T03:36:00;102095.91;;;11.80;87.04
76070;BME280;64768;51.738;5.852;2022-10-31T03:38:31;102091.97;;;11.78;86.97
76070;BME280;64768;51.738;5.852;2022-10-31T03:41:02;102088.06;;;11.75;87.16
76070;BME280;64768;51.738;5.852;2022-10-31T03:43:35;102088.03;;;11.71;87.33
76070;BME280;64768;51.738;5.852;2022-10-31T03:46:06;102096.59;;;11.70;87.20
76070;BME280;64768;51.738;5.852;2022-10-31T03:48:35;102089.56;;;11.69;87.56
76070;BME280;64768;51.738;5.852;2022-10-31T03:51:12;102079.78;;;11.64;87.17
76070;BME280;64768;51.738;5.852;2022-10-31T03:53:47;102088.38;;;11.66;87.44
76070;BME280;64768;51.738;5.852;2022-10-31T03:56:27;102098.50;;;11.66;87.39
76070;BME280;64768;51.738;5.852;2022-10-31T03:59:01;102088.34;;;11.63;87.12
76070;BME280;64768;51.738;5.852;2022-10-31T04:01:33;102093.44;;;11.64;86.99
76070;BME280;64768;51.738;5.852;2022-10-31T04:04:04;102098.09;;;11.60;87.02
76070;BME280;64768;51.738;5.852;2022-10-31T04:06:38;102096.91;;;11.58;86.91
76070;BME280;64768;51.738;5.852;2022-10-31T04:09:07;102089.81;;;11.53;86.72
76070;BME280;64768;51.738;5.852;2022-10-31T04:11:41;102099.22;;;11.56;86.97
76070;BME280;64768;51.738;5.852;2022-10-31T04:14:12;102096.84;;;11.54;87.10
76070;BME280;64768;51.738;5.852;2022-10-31T04:16:42;102099.94;;;11.53;87.23
76070;BME280;64768;51.738;5.852;2022-10-31T04:19:12;102087.47;;;11.48;87.00
76070;BME280;64768;51.738;5.852;2022-10-31T04:21:43;102095.25;;;11.50;87.22
76070;BME280;64768;51.738;5.852;2022-10-31T04:24:12;102092.47;;;11.42;87.40
76070;BME280;64768;51.738;5.852;2022-10-31T04:26:40;102086.25;;;11.42;86.69
76070;BME280;64768;51.738;5.852;2022-10-31T04:29:09;102096.00;;;11.43;87.06
76070;BME280;64768;51.738;5.852;2022-10-31T04:31:37;102091.69;;;11.42;87.31
76070;BME280;64768;51.738;5.852;2022-10-31T04:34:09;102092.03;;;11.37;87.07
76070;BME280;64768;51.738;5.852;2022-10-31T04:36:38;102083.44;;;11.35;87.14
76070;BME280;64768;51.738;5.852;2022-10-31T04:39:09;102090.44;;;11.32;86.91
76070;BME280;64768;51.738;5.852;2022-10-31T04:41:38;102090.44;;;11.32;87.09
76070;BME280;64768;51.738;5.852;2022-10-31T04:44:06;102082.63;;;11.31;87.17
76070;BME280;64768;51.738;5.852;2022-10-31T04:46:35;102077.91;;;11.24;87.07
76070;BME280;64768;51.738;5.852;2022-10-31T04:49:03;102087.66;;;11.25;87.06
76070;BME280;64768;51.738;5.852;2022-10-31T04:51:32;102074.41;;;11.24;87.23
76070;BME280;64768;51.738;5.852;2022-10-31T04:54:00;102078.69;;;11.25;87.00
76070;BME280;64768;51.738;5.852;2022-10-31T04:56:32;102078.28;;;11.23;87.13
76070;BME280;64768;51.738;5.852;2022-10-31T04:59:01;102071.56;;;11.13;87.04
76070;BME280;64768;51.738;5.852;2022-10-31T05:01:29;102072.75;;;11.16;87.05
76070;BME280;64768;51.738;5.852;2022-10-31T05:03:58;102082.09;;;11.15;87.28
76070;BME280;64768;51.738;5.852;2022-10-31T05:06:27;102075.06;;;11.13;87.02
76070;BME280;64768;51.738;5.852;2022-10-31T05:08:55;102068.06;;;11.12;86.67
76070;BME280;64768;51.738;5.852;2022-10-31T05:11:24;102073.53;;;11.16;87.13
76070;BME280;64768;51.738;5.852;2022-10-31T05:13:55;102070.00;;;11.12;87.11
76070;BME280;64768;51.738;5.852;2022-10-31T05:16:24;102058.19;;;11.01;86.89
76070;BME280;64768;51.738;5.852;2022-10-31T05:18:53;102068.75;;;11.06;87.22
76070;BME280;64768;51.738;5.852;2022-10-31T05:21:22;102063.66;;;11.01;87.02
76070;BME280;64768;51.738;5.852;2022-10-31T05:23:50;102058.94;;;10.98;87.02
76070;BME280;64768;51.738;5.852;2022-10-31T05:26:20;102067.53;;;11.00;86.96
76070;BME280;64768;51.738;5.852;2022-10-31T05:28:49;102072.19;;;10.99;87.08
76070;BME280;64768;51.738;5.852;2022-10-31T05:31:20;102059.69;;;10.95;87.05
76070;BME280;64768;51.738;5.852;2022-10-31T05:33:49;102054.22;;;10.91;87.13
76070;BME280;64768;51.738;5.852;2022-10-31T05:36:18;102056.94;;;10.91;87.17
76070;BME280;64768;51.738;5.852;2022-10-31T05:38:46;102058.81;;;10.87;87.20
76070;BME280;64768;51.738;5.852;2022-10-31T05:41:15;102064.28;;;10.87;87.24
76070;BME280;64768;51.738;5.852;2022-10-31T05:43:44;102062.72;;;10.86;87.13
76070;BME280;64768;51.738;5.852;2022-10-31T05:46:13;102069.72;;;10.87;87.17
76070;BME280;64768;51.738;5.852;2022-10-31T05:48:44;102062.31;;;10.84;87.57
76070;BME280;64768;51.738;5.852;2022-10-31T05:51:13;102062.72;;;10.86;87.18
76070;BME280;64768;51.738;5.852;2022-10-31T05:53:41;102061.13;;;10.81;86.78
76070;BME280;64768;51.738;5.852;2022-10-31T05:56:10;102051.34;;;10.77;87.18
76070;BME280;64768;51.738;5.852;2022-10-31T05:58:38;102051.38;;;10.80;86.92
76070;BME280;64768;51.738;5.852;2022-10-31T06:01:07;102058.81;;;10.83;87.11
76070;BME280;64768;51.738;5.852;2022-10-31T06:03:36;102050.59;;;10.80;87.03
76070;BME280;64768;51.738;5.852;2022-10-31T06:06:07;102053.72;;;10.82;86.85
76070;BME280;64768;51.738;5.852;2022-10-31T06:08:36;102048.66;;;10.80;86.91
76070;BME280;64768;51.738;5.852;2022-10-31T06:11:05;102046.28;;;10.75;87.07
76070;BME280;64768;51.738;5.852;2022-10-31T06:13:33;102047.38;;;10.71;87.01
76070;BME280;64768;51.738;5.852;2022-10-31T06:16:02;102044.22;;;10.69;86.99
76070;BME280;64768;51.738;5.852;2022-10-31T06:18:31;102044.25;;;10.72;86.82
76070;BME280;64768;51.738;5.852;2022-10-31T06:20:59;102047.38;;;10.71;86.89
76070;BME280;64768;51.738;5.852;2022-10-31T06:23:30;102050.47;;;10.69;87.11
76070;BME280;64768;51.738;5.852;2022-10-31T06:25:59;102051.97;;;10.63;87.09
76070;BME280;64768;51.738;5.852;2022-10-31T06:28:27;102060.16;;;10.67;86.97
76070;BME280;64768;51.738;5.852;2022-10-31T06:30:56;102049.63;;;10.62;86.97
76070;BME280;64768;51.738;5.852;2022-10-31T06:33:24;102057.38;;;10.60;86.87
76070;BME280;64768;51.738;5.852;2022-10-31T06:35:52;102057.78;;;10.62;86.89
76070;BME280;64768;51.738;5.852;2022-10-31T06:38:21;102051.56;;;10.61;87.17
76070;BME280;64768;51.738;5.852;2022-10-31T06:40:52;102047.63;;;10.59;86.95
76070;BME280;64768;51.738;5.852;2022-10-31T06:43:21;102048.44;;;10.59;87.36
76070;BME280;64768;51.738;5.852;2022-10-31T06:45:50;102043.34;;;10.58;87.33
76070;BME280;64768;51.738;5.852;2022-10-31T06:48:19;102051.94;;;10.60;86.97
76070;BME280;64768;51.738;5.852;2022-10-31T06:50:47;102050.38;;;10.59;87.06
76070;BME280;64768;51.738;5.852;2022-10-31T06:53:16;102042.13;;;10.55;87.05
76070;BME280;64768;51.738;5.852;2022-10-31T06:55:44;102049.22;;;10.60;87.08
76070;BME280;64768;51.738;5.852;2022-10-31T06:58:15;102044.47;;;10.57;86.83
76070;BME280;64768;51.738;5.852;2022-10-31T07:00:44;102052.31;;;10.58;86.99
76070;BME280;64768;51.738;5.852;2022-10-31T07:03:14;102065.19;;;10.61;87.06
76070;BME280;64768;51.738;5.852;2022-10-31T07:05:43;102066.34;;;10.60;87.05
76070;BME280;64768;51.738;5.852;2022-10-31T07:08:13;102068.69;;;10.62;87.10
76070;BME280;64768;51.738;5.852;2022-10-31T07:10:42;102072.97;;;10.63;87.07
76070;BME280;64768;51.738;5.852;2022-10-31T07:13:14;102074.16;;;10.65;86.75
76070;BME280;64768;51.738;5.852;2022-10-31T07:15:44;102069.13;;;10.67;86.84
76070;BME280;64768;51.738;5.852;2022-10-31T07:18:12;102064.47;;;10.68;87.18
76070;BME280;64768;51.738;5.852;2022-10-31T07:20:41;102069.94;;;10.71;87.14
76070;BME280;64768;51.738;5.852;2022-10-31T07:23:10;102066.50;;;10.74;86.84
76070;BME280;64768;51.738;5.852;2022-10-31T07:25:39;102054.00;;;10.73;87.47
76070;BME280;64768;51.738;5.852;2022-10-31T07:28:08;102053.69;;;10.78;87.83
76070;BME280;64768;51.738;5.852;2022-10-31T07:30:39;102052.53;;;10.79;87.56
76070;BME280;64768;51.738;5.852;2022-10-31T07:33:08;102058.81;;;10.87;88.11
76070;BME280;64768;51.738;5.852;2022-10-31T07:35:36;102051.50;;;10.91;88.06
76070;BME280;64768;51.738;5.852;2022-10-31T07:38:09;102065.94;;;10.95;88.38
76070;BME280;64768;51.738;5.852;2022-10-31T07:40:38;102059.34;;;11.00;88.61
76070;BME280;64768;51.738;5.852;2022-10-31T07:43:07;102055.09;;;11.02;88.80
76070;BME280;64768;51.738;5.852;2022-10-31T07:45:35;102066.50;;;11.11;88.75
76070;BME280;64768;51.738;5.852;2022-10-31T07:48:06;102071.59;;;11.17;87.82
76070;BME280;64768;51.738;5.852;2022-10-31T07:50:35;102072.03;;;11.22;88.66
76070;BME280;64768;51.738;5.852;2022-10-31T07:53:06;102073.25;;;11.28;87.68
76070;BME280;64768;51.738;5.852;2022-10-31T07:55:35;102077.56;;;11.33;88.28
76070;BME280;64768;51.738;5.852;2022-10-31T07:58:05;102074.09;;;11.36;88.15
76070;BME280;64768;51.738;5.852;2022-10-31T08:00:35;102075.72;;;11.40;89.23
76070;BME280;64768;51.738;5.852;2022-10-31T08:03:08;102084.31;;;11.42;88.50
76070;BME280;64768;51.738;5.852;2022-10-31T08:05:37;102090.59;;;11.50;88.35
76070;BME280;64768;51.738;5.852;2022-10-31T08:08:06;102087.53;;;11.55;87.33
76070;BME280;64768;51.738;5.852;2022-10-31T08:10:35;102080.16;;;11.63;87.80
76070;BME280;64768;51.738;5.852;2022-10-31T08:13:05;102074.34;;;11.68;88.33
76070;BME280;64768;51.738;5.852;2022-10-31T08:15:34;102078.34;;;11.78;87.69
76070;BME280;64768;51.738;5.852;2022-10-31T08:18:11;102076.06;;;11.83;87.73
76070;BME280;64768;51.738;5.852;2022-10-31T08:20:41;102072.94;;;11.85;87.32
76070;BME280;64768;51.738;5.852;2022-10-31T08:23:11;102079.22;;;11.89;87.61
76070;BME280;64768;51.738;5.852;2022-10-31T08:25:41;102078.88;;;11.97;86.74
76070;BME280;64768;51.738;5.852;2022-10-31T08:28:12;102075.38;;;12.00;86.57
76070;BME280;64768;51.738;5.852;2022-10-31T08:30:41;102068.44;;;12.10;86.43
76070;BME280;64768;51.738;5.852;2022-10-31T08:33:15;102066.09;;;12.16;86.27
76070;BME280;64768;51.738;5.852;2022-10-31T08:35:44;102066.53;;;12.21;85.91
76070;BME280;64768;51.738;5.852;2022-10-31T08:38:13;102075.53;;;12.29;85.75
76070;BME280;64768;51.738;5.852;2022-10-31T08:40:42;102075.56;;;12.36;85.89
76070;BME280;64768;51.738;5.852;2022-10-31T08:43:12;102075.63;;;12.43;85.75
76070;BME280;64768;51.738;5.852;2022-10-31T08:45:41;102065.47;;;12.51;85.25
76070;BME280;64768;51.738;5.852;2022-10-31T08:48:14;102059.66;;;12.56;85.20
76070;BME280;64768;51.738;5.852;2022-10-31T08:50:44;102058.13;;;12.66;84.66
76070;BME280;64768;51.738;5.852;2022-10-31T08:53:13;102045.25;;;12.73;84.83
76070;BME280;64768;51.738;5.852;2022-10-31T08:55:43;102043.72;;;12.83;84.59
76070;BME280;64768;51.738;5.852;2022-10-31T08:58:13;102041.78;;;12.87;84.46
76070;BME280;64768;51.738;5.852;2022-10-31T09:00:42;102039.84;;;12.91;84.59
76070;BME280;64768;51.738;5.852;2022-10-31T09:03:14;102044.13;;;12.99;84.90
76070;BME280;64768;51.738;5.852;2022-10-31T09:05:43;102050.00;;;13.12;85.69
76070;BME280;64768;51.738;5.852;2022-10-31T09:08:12;102055.53;;;13.23;85.77
76070;BME280;64768;51.738;5.852;2022-10-31T09:10:41;102050.44;;;13.25;85.49
76070;BME280;64768;51.738;5.852;2022-10-31T09:13:11;102058.66;;;13.28;85.59
76070;BME280;64768;51.738;5.852;2022-10-31T09:15:42;102052.41;;;13.35;85.94
76070;BME280;64768;51.738;5.852;2022-10-31T09:18:15;102033.25;;;13.42;86.01
76070;BME280;64768;51.738;5.852;2022-10-31T09:20:46;102006.28;;;13.44;86.57
76070;BME280;64768;51.738;5.852;2022-10-31T09:23:17;101988.28;;;13.46;87.47
76070;BME280;64768;51.738;5.852;2022-10-31T09:25:47;101990.22;;;13.49;87.49
76070;BME280;64768;51.738;5.852;2022-10-31T09:28:18;101982.78;;;13.50;87.22
76070;BME280;64768;51.738;5.852;2022-10-31T09:30:48;102000.41;;;13.52;88.61
76070;BME280;64768;51.738;5.852;2022-10-31T09:33:20;101999.63;;;13.56;88.39
76070;BME280;64768;51.738;5.852;2022-10-31T09:35:48;101998.81;;;13.59;87.86
76070;BME280;64768;51.738;5.852;2022-10-31T09:38:19;101993.34;;;13.59;87.87
76070;BME280;64768;51.738;5.852;2022-10-31T09:40:54;101999.22;;;13.61;87.23
76070;BME280;64768;51.738;5.852;2022-10-31T09:43:28;102028.53;;;13.64;87.09
76070;BME280;64768;51.738;5.852;2022-10-31T09:46:06;102030.50;;;13.67;87.41
76070;BME280;64768;51.738;5.852;2022-10-31T09:48:45;102018.34;;;13.75;87.65
76070;BME280;64768;51.738;5.852;2022-10-31T09:51:18;102012.47;;;13.87;87.54
76070;BME280;64768;51.738;5.852;2022-10-31T09:53:51;102015.56;;;13.89;87.60
76070;BME280;64768;51.738;5.852;2022-10-31T09:56:23;102001.50;;;13.91;87.71
76070;BME280;64768;51.738;5.852;2022-10-31T09:58:54;101994.44;;;13.93;87.31
76070;BME280;64768;51.738;5.852;2022-10-31T10:01:47;101994.03;;;14.02;87.15
76070;BME280;64768;51.738;5.852;2022-10-31T10:04:29;101988.13;;;14.07;87.00
76070;BME280;64768;51.738;5.852;2022-10-31T10:07:00;101977.53;;;14.12;87.23
76070;BME280;64768;51.738;5.852;2022-10-31T10:09:31;101974.41;;;14.14;87.60
76070;BME280;64768;51.738;5.852;2022-10-31T10:12:08;101978.31;;;14.20;87.16
76070;BME280;64768;51.738;5.852;2022-10-31T10:14:50;101977.09;;;14.25;87.19
76070;BME280;64768;51.738;5.852;2022-10-31T10:17:30;101975.09;;;14.29;86.60
76070;BME280;64768;51.738;5.852;2022-10-31T10:20:14;101973.16;;;14.33;86.63
76070;BME280;64768;51.738;5.852;2022-10-31T10:22:51;101970.75;;;14.38;87.11
76070;BME280;64768;51.738;5.852;2022-10-31T10:25:22;101970.38;;;14.40;87.42
76070;BME280;64768;51.738;5.852;2022-10-31T10:28:00;101973.84;;;14.48;87.58
76070;BME280;64768;51.738;5.852;2022-10-31T10:30:35;101972.31;;;14.50;87.29
76070;BME280;64768;51.738;5.852;2022-10-31T10:33:10;101968.78;;;14.50;87.09
76070;BME280;64768;51.738;5.852;2022-10-31T10:35:45;101974.97;;;14.57;87.30
76070;BME280;64768;51.738;5.852;2022-10-31T10:38:17;101958.50;;;14.61;86.94
76070;BME280;64768;51.738;5.852;2022-10-31T10:40:48;101947.13;;;14.62;87.26
76070;BME280;64768;51.738;5.852;2022-10-31T10:43:23;101949.44;;;14.71;87.43
76070;BME280;64768;51.738;5.852;2022-10-31T10:45:54;101943.94;;;14.75;87.43
76070;BME280;64768;51.738;5.852;2022-10-31T10:48:42;101939.19;;;14.82;87.43
76070;BME280;64768;51.738;5.852;2022-10-31T10:51:22;101936.38;;;14.89;86.98
76070;BME280;64768;51.738;5.852;2022-10-31T10:54:02;101928.09;;;14.93;87.54
76070;BME280;64768;51.738;5.852;2022-10-31T10:56:47;101917.50;;;14.98;87.84
76070;BME280;64768;51.738;5.852;2022-10-31T10:59:20;101909.97;;;15.06;87.84
76070;BME280;64768;51.738;5.852;2022-10-31T11:01:51;101905.59;;;15.12;88.00
76070;BME280;64768;51.738;5.852;2022-10-31T11:04:28;101887.56;;;15.15;88.10
76070;BME280;64768;51.738;5.852;2022-10-31T11:07:05;101885.16;;;15.20;87.84
76070;BME280;64768;51.738;5.852;2022-10-31T11:09:34;101879.19;;;15.25;87.90
76070;BME280;64768;51.738;5.852;2022-10-31T11:12:08;101879.16;;;15.29;87.80
76070;BME280;64768;51.738;5.852;2022-10-31T11:14:44;101880.28;;;15.35;87.32
76070;BME280;64768;51.738;5.852;2022-10-31T11:17:20;101895.09;;;15.41;87.27
76070;BME280;64768;51.738;5.852;2022-10-31T11:20:00;101895.47;;;15.47;87.11
76070;BME280;64768;51.738;5.852;2022-10-31T11:22:31;101896.56;;;15.53;87.26
76070;BME280;64768;51.738;5.852;2022-10-31T11:25:00;101883.19;;;15.55;86.81
76070;BME280;64768;51.738;5.852;2022-10-31T11:27:28;101874.88;;;15.66;86.80
76070;BME280;64768;51.738;5.852;2022-10-31T11:30:05;101868.91;;;15.71;86.83
76070;BME280;64768;51.738;5.852;2022-10-31T11:32:33;101861.38;;;15.78;86.48
76070;BME280;64768;51.738;5.852;2022-10-31T11:35:09;101869.56;;;15.82;86.67
76070;BME280;64768;51.738;5.852;2022-10-31T11:37:45;101872.19;;;15.89;86.77
76070;BME280;64768;51.738;5.852;2022-10-31T11:40:16;101863.13;;;15.92;86.22
76070;BME280;64768;51.738;5.852;2022-10-31T11:42:47;101853.31;;;15.95;86.14
76070;BME280;64768;51.738;5.852;2022-10-31T11:45:18;101848.53;;;15.99;86.13
76070;BME280;64768;51.738;5.852;2022-10-31T11:47:56;101838.25;;;16.03;85.44
76070;BME280;64768;51.738;5.852;2022-10-31T11:50:29;101842.09;;;16.09;85.97
76070;BME280;64768;51.738;5.852;2022-10-31T11:53:02;101822.06;;;16.08;85.74
76070;BME280;64768;51.738;5.852;2022-10-31T11:55:33;101832.97;;;16.15;85.17
76070;BME280;64768;51.738;5.852;2022-10-31T11:58:03;101824.69;;;16.19;85.35
76070;BME280;64768;51.738;5.852;2022-10-31T12:00:33;101810.09;;;16.22;84.72
76070;BME280;64768;51.738;5.852;2022-10-31T12:03:15;101798.25;;;16.25;84.45
76070;BME280;64768;51.738;5.852;2022-10-31T12:05:48;101790.75;;;16.29;84.79
76070;BME280;64768;51.738;5.852;2022-10-31T12:08:20;101791.81;;;16.35;85.15
76070;BME280;64768;51.738;5.852;2022-10-31T12:10:56;101783.88;;;16.41;85.09
76070;BME280;64768;51.738;5.852;2022-10-31T12:13:32;101794.41;;;16.46;84.49
76070;BME280;64768;51.738;5.852;2022-10-31T12:16:07;101783.69;;;16.51;84.38
76070;BME280;64768;51.738;5.852;2022-10-31T12:18:49;101768.25;;;16.58;83.98
76070;BME280;64768;51.738;5.852;2022-10-31T12:21:32;101772.53;;;16.62;84.44
76070;BME280;64768;51.738;5.852;2022-10-31T12:24:13;101763.38;;;16.69;84.07
76070;BME280;64768;51.738;5.852;2022-10-31T12:26:45;101754.63;;;16.74;83.86
76070;BME280;64768;51.738;5.852;2022-10-31T12:29:26;101742.75;;;16.80;83.75
76070;BME280;64768;51.738;5.852;2022-10-31T12:32:11;101726.94;;;16.85;83.52
76070;BME280;64768;51.738;5.852;2022-10-31T12:35:05;101719.69;;;16.94;83.52
76070;BME280;64768;51.738;5.852;2022-10-31T12:37:47;101717.97;;;17.00;83.09
76070;BME280;64768;51.738;5.852;2022-10-31T12:40:36;101707.66;;;17.04;83.20
76070;BME280;64768;51.738;5.852;2022-10-31T12:43:20;101697.38;;;17.08;82.76
76070;BME280;64768;51.738;5.852;2022-10-31T12:45:54;101691.72;;;17.16;82.70
76070;BME280;64768;51.738;5.852;2022-10-31T12:48:41;101677.09;;;17.19;82.62
76070;BME280;64768;51.738;5.852;2022-10-31T12:51:21;101673.47;;;17.22;82.20
76070;BME280;64768;51.738;5.852;2022-10-31T12:54:13;101671.06;;;17.24;82.45
76070;BME280;64768;51.738;5.852;2022-10-31T12:56:52;101661.22;;;17.26;82.05
76070;BME280;64768;51.738;5.852;2022-10-31T12:59:28;101661.56;;;17.28;81.94
76070;BME280;64768;51.738;5.852;2022-10-31T13:02:04;101651.75;;;17.27;81.59
76070;BME280;64768;51.738;5.852;2022-10-31T13:04:40;101655.53;;;17.33;81.61
76070;BME280;64768;51.738;5.852;2022-10-31T13:07:14;101648.81;;;17.34;81.50
76070;BME280;64768;51.738;5.852;2022-10-31T13:09:48;101643.22;;;17.38;80.97
76070;BME280;64768;51.738;5.852;2022-10-31T13:12:22;101638.91;;;17.37;81.41
76070;BME280;64768;51.738;5.852;2022-10-31T13:14:54;101643.16;;;17.42;81.02
76070;BME280;64768;51.738;5.852;2022-10-31T13:17:29;101632.06;;;17.45;80.41